Philadelphia International Airport Philadelphia US
ICAO: KPHL
IATA: PHL
Category: Large
Scheduled Services: Yes

Elevation: 36 ft
TransAlt. 18000 ft.

Airport Communications:
APP:123.8
PRM:120.425
ATIS:133.4
CLNC DEL:118.85
DEP:119.75
GND:121.9
TWR:118.5
UNICOM:122.95

KPHL Zoom In..

If you have problems with the map follow the link
https://www.worldairports.se/pages/airport.php?
ICAO=KPHL

Runways:

(A) RW 08 length 5000 ft width 150 ft
---- / hdg 85

(B) RW 09L length 9500 ft width 150 ft
ILS 108.95 / hdg 85

(C) RW 09R length 10506 ft width 200 ft
ILS 109.30 / hdg 85

(D) RW 17 length 6501 ft width 150 ft
ILS 108.75 / hdg 169

(E) RW 26 length 5000 ft width 150 ft
ILS 111.55 / hdg 265

(F) RW 27L length 10506 ft width 200 ft
ILS 109.30 / hdg 265

(G) RW 27R length 9500 ft width 150 ft
ILS 108.95 / hdg 265

(H) RW 35 length 6501 ft width 150 ft
---- / hdg 349

Location; KPHL
Day. 12 / Time. 23.54 Zulu
* Altimeter: 30.69
* Temperature: 01° c. 33.8°f.
* Wind from: 160° Speed 05 kn.
Dewpoint: -09° c.
Visibility: 10 Statute Miles.
Clouds: Scattered 25000 ft.

KPHL 122354Z 16005KT 10SM SCT250 01/M09 A3069 RMK AO2 SLP391 T00061094 10039 20006 56002


Wind From 160°
Speed 05 kn.

 
 
jpsmedia worldairports.se 2019   terms of use